createdAt,value
2023-03-28T00:01:08.922Z,83.94
2023-03-28T00:03:42.557Z,85.48
2023-03-28T00:06:18.829Z,84.18
2023-03-28T00:08:54.050Z,84.28
2023-03-28T00:11:27.108Z,83.48
2023-03-28T00:14:02.076Z,82.46
2023-03-28T00:16:37.159Z,82.72
2023-03-28T00:19:12.710Z,81.54
2023-03-28T00:21:47.347Z,82.43
2023-03-28T00:24:22.482Z,81.19
2023-03-28T00:26:55.639Z,80.68
2023-03-28T00:29:30.184Z,81.36
2023-03-28T00:32:03.949Z,81.20
2023-03-28T00:34:37.170Z,80.82
2023-03-28T00:37:10.751Z,80.84
2023-03-28T00:39:50.128Z,81.53
2023-03-28T00:42:24.387Z,80.29
2023-03-28T00:44:59.076Z,81.62
2023-03-28T00:47:37.865Z,80.24
2023-03-28T00:50:12.759Z,79.57
2023-03-28T00:52:49.792Z,80.56
2023-03-28T00:55:27.149Z,80.39
2023-03-28T00:58:01.184Z,80.71
2023-03-28T01:00:34.911Z,78.77
2023-03-28T01:03:08.267Z,79.95
2023-03-28T01:05:41.834Z,79.37
2023-03-28T01:08:18.654Z,79.02
2023-03-28T01:10:53.298Z,78.27
2023-03-28T01:13:28.970Z,79.18
2023-03-28T01:16:03.839Z,78.74
2023-03-28T01:18:41.599Z,78.86
2023-03-28T01:21:26.278Z,78.76
2023-03-28T01:24:21.161Z,78.88
2023-03-28T01:26:57.129Z,78.88
2023-03-28T01:29:43.915Z,78.77
2023-03-28T01:32:32.060Z,78.45
2023-03-28T01:35:15.856Z,79.16
2023-03-28T01:37:54.447Z,78.23
2023-03-28T01:40:34.097Z,77.85
2023-03-28T01:43:14.424Z,79.22
2023-03-28T01:45:52.474Z,79.99
2023-03-28T01:48:31.390Z,80.15
2023-03-28T01:51:10.164Z,80.29
2023-03-28T01:53:47.492Z,80.72
2023-03-28T01:56:24.450Z,80.90
2023-03-28T01:59:01.204Z,82.63
2023-03-28T02:01:36.943Z,81.83
2023-03-28T02:04:20.578Z,82.83
2023-03-28T02:06:55.193Z,82.08
2023-03-28T02:09:32.421Z,82.12
2023-03-28T02:12:09.714Z,82.96
2023-03-28T02:14:45.528Z,83.49
2023-03-28T02:17:20.268Z,81.49
2023-03-28T02:19:58.698Z,81.35
2023-03-28T02:22:33.995Z,79.86
2023-03-28T02:25:09.290Z,78.71
2023-03-28T02:27:44.102Z,78.98
2023-03-28T02:30:17.563Z,76.60
2023-03-28T02:32:51.623Z,74.66
2023-03-28T02:35:28.608Z,73.75
2023-03-28T02:38:05.986Z,70.78
2023-03-28T02:40:47.693Z,69.97
2023-03-28T02:43:29.557Z,69.75
2023-03-28T02:46:10.432Z,69.23
2023-03-28T02:48:56.288Z,70.75
2023-03-28T02:51:34.834Z,68.73
2023-03-28T02:54:18.382Z,69.39
2023-03-28T02:57:01.529Z,69.09
2023-03-28T02:59:38.187Z,67.95
2023-03-28T03:02:11.618Z,67.48
2023-03-28T03:04:44.665Z,66.91
2023-03-28T03:07:18.218Z,68.07
2023-03-28T03:09:53.726Z,67.71
2023-03-28T03:12:29.835Z,68.04
2023-03-28T03:15:04.244Z,69.10
2023-03-28T03:17:38.259Z,68.19
2023-03-28T03:20:11.919Z,68.53
2023-03-28T03:22:44.891Z,68.63
2023-03-28T03:25:18.323Z,68.96
2023-03-28T03:27:52.926Z,68.23
2023-03-28T03:30:25.983Z,68.30
2023-03-28T03:33:00.648Z,69.98
2023-03-28T03:35:33.797Z,69.47
2023-03-28T03:38:06.769Z,68.38
2023-03-28T03:40:40.287Z,67.82
2023-03-28T03:43:15.139Z,68.87
2023-03-28T03:45:48.212Z,68.17
2023-03-28T03:48:21.164Z,67.76
2023-03-28T03:50:54.507Z,67.61
2023-03-28T03:53:27.722Z,66.96
2023-03-28T03:56:01.793Z,65.87
2023-03-28T03:58:36.980Z,66.37
2023-03-28T04:01:13.993Z,65.57
2023-03-28T04:03:48.201Z,68.18
2023-03-28T04:06:21.316Z,65.51
2023-03-28T04:08:54.704Z,65.98
2023-03-28T04:11:27.933Z,66.19
2023-03-28T04:14:04.355Z,65.78
2023-03-28T04:16:40.274Z,68.26
2023-03-28T04:19:15.690Z,65.98
2023-03-28T04:21:49.779Z,67.69
2023-03-28T04:24:24.412Z,66.78
2023-03-28T04:26:57.761Z,66.20
2023-03-28T04:29:32.135Z,66.58
2023-03-28T04:32:06.709Z,66.79
2023-03-28T04:34:40.000Z,65.65
2023-03-28T04:37:13.383Z,65.73
2023-03-28T04:39:47.645Z,66.10
2023-03-28T04:42:20.972Z,65.85
2023-03-28T04:44:55.363Z,66.65
2023-03-28T04:47:28.664Z,66.50
2023-03-28T04:50:01.740Z,65.35
2023-03-28T04:52:35.676Z,67.06
2023-03-28T04:55:10.344Z,65.95
2023-03-28T04:57:43.594Z,66.87
2023-03-28T05:00:18.891Z,66.54
2023-03-28T05:02:55.180Z,67.46
2023-03-28T05:05:29.037Z,65.99
2023-03-28T05:08:02.773Z,66.13
2023-03-28T05:10:36.072Z,65.78
2023-03-28T05:13:10.462Z,66.07
2023-03-28T05:15:47.258Z,65.79
2023-03-28T05:18:20.660Z,66.15
2023-03-28T05:20:53.888Z,66.39
2023-03-28T05:23:27.375Z,65.75
2023-03-28T05:26:00.330Z,65.69
2023-03-28T05:28:33.219Z,65.30
2023-03-28T05:31:08.523Z,65.30
2023-03-28T05:33:41.904Z,64.94
2023-03-28T05:36:15.766Z,65.28
2023-03-28T05:38:48.866Z,64.60
2023-03-28T05:41:21.730Z,64.68
2023-03-28T05:44:05.095Z,63.91
2023-03-28T05:46:39.997Z,65.17
2023-03-28T05:49:13.176Z,65.29
2023-03-28T05:51:46.483Z,63.72
2023-03-28T05:54:19.694Z,64.03
2023-03-28T05:56:52.988Z,63.64
2023-03-28T05:59:26.090Z,62.42
2023-03-28T06:02:03.419Z,62.15
2023-03-28T06:04:36.408Z,63.37
2023-03-28T06:07:09.919Z,62.61
2023-03-28T06:09:42.993Z,62.79
2023-03-28T06:12:16.599Z,61.67
2023-03-28T06:14:49.670Z,63.81
2023-03-28T06:17:24.952Z,61.60
2023-03-28T06:19:57.953Z,61.70
2023-03-28T06:22:31.181Z,60.42
2023-03-28T06:25:06.765Z,60.54
2023-03-28T06:27:39.916Z,60.22
2023-03-28T06:30:13.891Z,60.50
2023-03-28T06:32:48.625Z,60.48
2023-03-28T06:35:21.952Z,61.09
2023-03-28T06:37:55.077Z,60.39
2023-03-28T06:40:28.341Z,59.49
2023-03-28T06:43:01.424Z,60.33
2023-03-28T06:45:34.572Z,58.83
2023-03-28T06:48:09.516Z,58.56
2023-03-28T06:50:42.567Z,58.26
2023-03-28T06:53:15.490Z,57.20
2023-03-28T06:55:50.730Z,58.31
2023-03-28T06:58:24.405Z,56.88
2023-03-28T07:00:59.731Z,57.02
2023-03-28T07:03:34.762Z,56.74
2023-03-28T07:06:08.682Z,56.80
2023-03-28T07:08:42.062Z,57.21
2023-03-28T07:11:15.156Z,57.06
2023-03-28T07:13:48.933Z,57.06
2023-03-28T07:16:22.659Z,56.62
2023-03-28T07:18:57.242Z,55.23
2023-03-28T07:21:30.530Z,56.08
2023-03-28T07:24:03.522Z,56.21
2023-03-28T07:26:36.616Z,57.03
2023-03-28T07:29:09.692Z,55.51
2023-03-28T07:31:43.060Z,55.56
2023-03-28T07:34:18.695Z,55.29
2023-03-28T07:36:51.989Z,54.32
2023-03-28T07:39:25.207Z,52.65
2023-03-28T07:41:58.443Z,54.57
2023-03-28T07:44:31.508Z,54.03
2023-03-28T07:47:05.999Z,53.28
2023-03-28T07:49:41.206Z,52.77
2023-03-28T07:52:14.524Z,51.57
2023-03-28T07:54:47.666Z,51.59
2023-03-28T07:57:21.052Z,51.57
2023-03-28T07:59:56.103Z,53.06
2023-03-28T08:02:29.490Z,53.00
2023-03-28T08:05:03.831Z,53.08
2023-03-28T08:07:37.512Z,52.50
2023-03-28T08:10:14.683Z,51.54
2023-03-28T08:12:49.240Z,52.37
2023-03-28T08:15:22.608Z,52.64
2023-03-28T08:17:55.770Z,53.83
2023-03-28T08:20:30.314Z,53.83
2023-03-28T08:23:04.094Z,51.97
2023-03-28T08:25:37.203Z,52.64
2023-03-28T08:28:11.383Z,53.08
2023-03-28T08:30:44.996Z,52.28
2023-03-28T08:33:18.233Z,51.03
2023-03-28T08:35:53.813Z,51.35
2023-03-28T08:38:27.299Z,51.37
2023-03-28T08:41:05.480Z,50.99
2023-03-28T08:43:54.475Z,52.09
2023-03-28T08:46:29.005Z,51.99
2023-03-28T08:49:05.476Z,52.15
2023-03-28T08:51:41.301Z,51.55
2023-03-28T08:54:16.051Z,52.59
2023-03-28T08:56:51.210Z,50.50
2023-03-28T08:59:26.912Z,49.76
2023-03-28T09:02:00.265Z,51.05
2023-03-28T09:04:36.112Z,51.34
2023-03-28T09:07:18.813Z,49.98
2023-03-28T09:09:55.496Z,49.72
2023-03-28T09:12:35.118Z,48.66
2023-03-28T09:15:16.278Z,47.51
2023-03-28T09:17:58.560Z,48.69
2023-03-28T09:20:35.075Z,48.27
2023-03-28T09:23:26.068Z,47.67
2023-03-28T09:26:02.328Z,47.34
2023-03-28T09:28:39.370Z,48.15
2023-03-28T09:31:14.255Z,48.64
2023-03-28T09:33:48.390Z,48.03
2023-03-28T09:36:25.960Z,48.15
2023-03-28T09:39:02.721Z,47.75
2023-03-28T09:41:41.230Z,48.19
2023-03-28T09:44:15.931Z,49.06
2023-03-28T09:46:49.687Z,48.48
2023-03-28T09:49:23.848Z,47.41
2023-03-28T09:51:57.856Z,47.30
2023-03-28T09:54:35.241Z,48.01
2023-03-28T09:57:08.268Z,48.33
2023-03-28T09:59:42.109Z,47.29
2023-03-28T10:02:28.979Z,46.98
2023-03-28T10:05:06.026Z,46.76
2023-03-28T10:07:43.654Z,47.00
2023-03-28T10:10:22.467Z,46.89
2023-03-28T10:12:57.741Z,46.61
2023-03-28T10:15:36.033Z,46.03
2023-03-28T10:18:16.389Z,45.17
2023-03-28T10:20:51.236Z,45.48
2023-03-28T10:23:25.174Z,45.60
2023-03-28T10:26:03.031Z,46.51
2023-03-28T10:28:37.199Z,44.81
2023-03-28T10:31:21.082Z,46.18
2023-03-28T10:33:54.366Z,45.80
2023-03-28T10:36:31.610Z,45.26
2023-03-28T10:39:21.214Z,45.08
2023-03-28T10:41:56.837Z,44.10
2023-03-28T10:44:30.615Z,44.70
2023-03-28T10:47:05.463Z,44.19
2023-03-28T10:49:41.956Z,43.11
2023-03-28T10:52:23.175Z,42.62
2023-03-28T10:55:04.672Z,43.03
2023-03-28T10:57:41.523Z,42.27
2023-03-28T11:00:17.653Z,43.52
2023-03-28T11:03:08.339Z,43.48
2023-03-28T11:05:54.908Z,42.97
2023-03-28T11:08:36.496Z,43.14
2023-03-28T11:11:16.400Z,43.04
2023-03-28T11:13:55.488Z,42.56
2023-03-28T11:16:35.447Z,41.83
2023-03-28T11:19:16.692Z,42.25
2023-03-28T11:21:53.478Z,41.51
2023-03-28T11:24:32.565Z,41.96
2023-03-28T11:27:16.057Z,41.83
2023-03-28T11:29:55.390Z,41.38
2023-03-28T11:32:30.858Z,41.33
2023-03-28T11:35:13.711Z,41.76
2023-03-28T11:37:51.848Z,41.47
2023-03-28T11:40:38.504Z,40.40
2023-03-28T11:43:14.061Z,41.05
2023-03-28T11:45:52.737Z,40.17
2023-03-28T11:48:27.544Z,39.81
2023-03-28T11:51:04.874Z,39.38
2023-03-28T11:53:43.094Z,40.00
2023-03-28T11:56:21.900Z,39.60
2023-03-28T11:58:57.242Z,39.65
2023-03-28T12:01:32.919Z,38.86
2023-03-28T12:04:11.011Z,38.94
2023-03-28T12:06:59.534Z,39.14
2023-03-28T12:09:37.380Z,38.85
2023-03-28T12:12:13.933Z,39.62
2023-03-28T12:14:50.961Z,38.61
2023-03-28T12:17:27.059Z,38.24
2023-03-28T12:20:00.165Z,39.11
2023-03-28T12:22:36.208Z,39.00
2023-03-28T12:25:13.718Z,38.60
2023-03-28T12:27:56.265Z,38.88
2023-03-28T12:30:33.443Z,39.05
2023-03-28T12:33:13.249Z,39.13
2023-03-28T12:35:49.518Z,38.80
2023-03-28T12:38:31.718Z,39.07
2023-03-28T12:41:05.843Z,38.91
2023-03-28T12:43:44.526Z,39.49
2023-03-28T12:46:19.547Z,38.87
2023-03-28T12:48:55.568Z,38.41
2023-03-28T12:51:31.249Z,37.59
2023-03-28T12:54:08.963Z,37.81
2023-03-28T12:56:42.212Z,38.23
2023-03-28T12:59:36.483Z,38.42
2023-03-28T13:02:13.017Z,38.66
2023-03-28T13:04:50.583Z,38.10
2023-03-28T13:07:28.277Z,38.03
2023-03-28T13:10:04.745Z,38.95
2023-03-28T13:12:52.897Z,39.10
2023-03-28T13:15:29.849Z,39.15
2023-03-28T13:18:21.818Z,39.10
2023-03-28T13:20:55.074Z,38.71
2023-03-28T13:23:30.400Z,39.66
2023-03-28T13:26:04.696Z,40.84
2023-03-28T13:28:43.960Z,39.41
2023-03-28T13:31:23.073Z,39.13
2023-03-28T13:33:58.773Z,39.91
2023-03-28T13:36:33.131Z,39.46
2023-03-28T13:39:22.863Z,38.33
2023-03-28T13:42:00.069Z,38.67
2023-03-28T13:44:40.360Z,39.44
2023-03-28T13:47:18.962Z,39.03
2023-03-28T13:49:54.196Z,38.66
2023-03-28T13:52:27.198Z,39.72
2023-03-28T13:55:03.909Z,38.46
2023-03-28T13:57:37.717Z,38.60
2023-03-28T14:00:16.367Z,39.02
2023-03-28T14:02:51.904Z,38.37
2023-03-28T14:05:25.932Z,38.47
2023-03-28T14:08:03.830Z,39.00
2023-03-28T14:10:38.268Z,39.13
2023-03-28T14:13:14.902Z,39.83
2023-03-28T14:15:48.013Z,39.77
2023-03-28T14:18:28.658Z,39.41
2023-03-28T14:21:02.343Z,38.77
2023-03-28T14:23:37.175Z,39.22
2023-03-28T14:26:16.498Z,39.17
2023-03-28T14:28:51.592Z,38.75
2023-03-28T14:31:32.668Z,39.49
2023-03-28T14:34:16.548Z,38.70
2023-03-28T14:36:59.084Z,40.47
2023-03-28T14:39:33.200Z,40.34
2023-03-28T14:42:08.446Z,39.77
2023-03-28T14:44:42.865Z,39.65
2023-03-28T14:47:17.907Z,42.53
2023-03-28T14:49:55.814Z,39.55
2023-03-28T14:52:30.757Z,41.10
2023-03-28T14:55:04.794Z,39.23
2023-03-28T14:57:38.306Z,40.19
2023-03-28T15:00:15.213Z,40.93
2023-03-28T15:02:50.471Z,39.89
2023-03-28T15:05:25.282Z,39.88
2023-03-28T15:08:00.897Z,40.12
2023-03-28T15:10:34.598Z,39.80
2023-03-28T15:13:13.471Z,40.01
2023-03-28T15:15:48.554Z,39.54
2023-03-28T15:18:28.554Z,39.80
2023-03-28T15:21:04.517Z,39.55
2023-03-28T15:23:40.972Z,39.85
2023-03-28T15:26:17.131Z,39.77
2023-03-28T15:28:52.756Z,39.00
2023-03-28T15:31:26.215Z,39.15
2023-03-28T15:33:59.558Z,39.04
2023-03-28T15:36:34.886Z,39.77
2023-03-28T15:39:18.214Z,39.24
2023-03-28T15:41:54.854Z,39.09
2023-03-28T15:44:29.360Z,38.88
2023-03-28T15:47:04.398Z,40.07
2023-03-28T15:49:38.204Z,41.18
2023-03-28T15:52:18.657Z,39.59
2023-03-28T15:54:53.274Z,41.30
2023-03-28T15:57:29.538Z,39.56
2023-03-28T16:00:02.516Z,40.87
2023-03-28T16:02:37.343Z,40.19
2023-03-28T16:05:27.037Z,39.54
2023-03-28T16:08:02.513Z,39.59
2023-03-28T16:10:35.900Z,39.15
2023-03-28T16:13:15.016Z,39.32
2023-03-28T16:15:51.085Z,41.27
2023-03-28T16:18:24.304Z,38.51
2023-03-28T16:20:57.146Z,40.80
2023-03-28T16:23:31.645Z,39.54
2023-03-28T16:26:04.782Z,40.05
2023-03-28T16:28:37.820Z,39.00
2023-03-28T16:31:14.128Z,39.74
2023-03-28T16:33:47.282Z,40.96
2023-03-28T16:36:20.310Z,39.72
2023-03-28T16:38:54.736Z,42.87
2023-03-28T16:41:27.866Z,39.25
2023-03-28T16:44:01.107Z,40.58
2023-03-28T16:46:34.444Z,40.02
2023-03-28T16:49:07.456Z,39.98
2023-03-28T16:51:40.661Z,39.75
2023-03-28T16:54:15.063Z,39.20
2023-03-28T16:56:48.544Z,39.67
2023-03-28T16:59:22.054Z,39.13
2023-03-28T17:01:56.047Z,41.50
2023-03-28T17:04:30.042Z,39.44
2023-03-28T17:07:03.138Z,38.86
2023-03-28T17:09:38.154Z,39.32
2023-03-28T17:12:11.785Z,39.42
2023-03-28T17:14:46.008Z,40.20
2023-03-28T17:17:19.695Z,40.01
2023-03-28T17:19:53.019Z,40.20
2023-03-28T17:22:27.312Z,40.33
2023-03-28T17:25:02.323Z,39.74
2023-03-28T17:27:35.520Z,41.58
2023-03-28T17:30:09.679Z,43.80
2023-03-28T17:32:43.680Z,40.30
2023-03-28T17:35:17.299Z,40.46
2023-03-28T17:37:52.701Z,40.61
2023-03-28T17:40:27.296Z,42.20
2023-03-28T17:43:00.266Z,40.42
2023-03-28T17:45:33.596Z,41.00
2023-03-28T17:48:06.928Z,40.09
2023-03-28T17:50:40.248Z,44.40
2023-03-28T17:53:13.440Z,42.61
2023-03-28T17:55:48.396Z,41.47
2023-03-28T17:58:21.378Z,40.74
2023-03-28T18:00:54.814Z,41.12
2023-03-28T18:03:28.156Z,41.69
2023-03-28T18:06:02.060Z,40.14
2023-03-28T18:08:35.634Z,45.49
2023-03-28T18:11:12.021Z,43.51
2023-03-28T18:13:45.370Z,39.69
2023-03-28T18:16:19.232Z,41.11
2023-03-28T18:18:54.243Z,39.60
2023-03-28T18:21:27.749Z,40.55
2023-03-28T18:24:00.920Z,40.39
2023-03-28T18:26:35.272Z,43.86
2023-03-28T18:29:08.878Z,43.87
2023-03-28T18:31:43.311Z,43.13
2023-03-28T18:34:16.502Z,40.57
2023-03-28T18:36:49.441Z,40.85
2023-03-28T18:39:23.258Z,40.65
2023-03-28T18:41:57.659Z,40.75
2023-03-28T18:44:33.399Z,39.79
2023-03-28T18:47:06.913Z,39.91
2023-03-28T18:49:41.056Z,42.30
2023-03-28T18:52:14.208Z,39.99
2023-03-28T18:54:50.719Z,41.10
2023-03-28T18:57:26.820Z,40.56
2023-03-28T19:00:00.051Z,40.80
2023-03-28T19:02:33.323Z,43.58
2023-03-28T19:05:07.124Z,39.92
2023-03-28T19:07:40.380Z,40.58
2023-03-28T19:10:14.157Z,40.22
2023-03-28T19:12:51.000Z,40.65
2023-03-28T19:15:25.923Z,40.37
2023-03-28T19:18:02.276Z,40.66
2023-03-28T19:20:36.864Z,41.21
2023-03-28T19:23:09.867Z,40.29
2023-03-28T19:25:43.595Z,39.98
2023-03-28T19:28:18.818Z,41.12
2023-03-28T19:30:57.366Z,39.28
2023-03-28T19:33:30.987Z,39.64
2023-03-28T19:36:05.777Z,39.70
2023-03-28T19:38:40.155Z,39.19
2023-03-28T19:41:17.146Z,38.66
2023-03-28T19:43:51.635Z,39.84
2023-03-28T19:46:33.697Z,39.69
2023-03-28T19:49:08.131Z,39.67
2023-03-28T19:51:41.424Z,40.39
2023-03-28T19:54:15.343Z,40.79
2023-03-28T19:56:48.838Z,40.83
2023-03-28T19:59:23.493Z,41.61
2023-03-28T20:01:56.736Z,41.99
2023-03-28T20:04:30.773Z,42.22
2023-03-28T20:07:04.093Z,43.93
2023-03-28T20:09:37.194Z,43.99
2023-03-28T20:12:11.150Z,43.12
2023-03-28T20:14:46.763Z,43.49
2023-03-28T20:17:20.696Z,43.11
2023-03-28T20:19:53.999Z,43.51
2023-03-28T20:22:29.746Z,43.73
2023-03-28T20:25:02.979Z,43.96
2023-03-28T20:27:37.252Z,44.01
2023-03-28T20:30:13.927Z,44.14
2023-03-28T20:32:49.625Z,43.67
2023-03-28T20:35:22.929Z,44.55
2023-03-28T20:37:56.102Z,45.39
2023-03-28T20:40:29.274Z,44.86
2023-03-28T20:43:03.006Z,47.41
2023-03-28T20:45:39.746Z,46.05
2023-03-28T20:48:16.403Z,45.88
2023-03-28T20:50:49.455Z,46.39
2023-03-28T20:53:22.687Z,46.51
2023-03-28T20:56:00.431Z,47.04
2023-03-28T20:58:34.228Z,47.16
2023-03-28T21:01:10.652Z,49.02
2023-03-28T21:03:53.781Z,48.21
2023-03-28T21:06:29.761Z,48.19
2023-03-28T21:09:04.654Z,47.70
2023-03-28T21:11:38.424Z,47.86
2023-03-28T21:14:13.220Z,47.63
2023-03-28T21:16:50.012Z,48.50
2023-03-28T21:19:23.256Z,47.59
2023-03-28T21:21:57.127Z,46.90
2023-03-28T21:24:30.235Z,48.24
2023-03-28T21:27:03.408Z,47.09
2023-03-28T21:29:36.426Z,48.36
2023-03-28T21:32:11.356Z,48.03
2023-03-28T21:34:44.880Z,48.27
2023-03-28T21:37:18.145Z,47.52
2023-03-28T21:39:51.553Z,47.63
2023-03-28T21:42:24.872Z,48.07
2023-03-28T21:44:58.151Z,47.97
2023-03-28T21:47:32.589Z,47.78
2023-03-28T21:50:06.081Z,48.52
2023-03-28T21:52:39.293Z,48.14
2023-03-28T21:55:12.344Z,48.18
2023-03-28T21:57:45.386Z,48.19
2023-03-28T22:00:18.637Z,49.78
2023-03-28T22:02:54.346Z,49.20
2023-03-28T22:05:29.686Z,48.49
2023-03-28T22:08:04.622Z,49.19
2023-03-28T22:10:37.916Z,48.92
2023-03-28T22:13:12.148Z,50.46
2023-03-28T22:15:45.870Z,49.41
2023-03-28T22:18:21.088Z,50.15
2023-03-28T22:20:54.338Z,49.91
2023-03-28T22:23:27.414Z,49.82
2023-03-28T22:26:00.703Z,50.51
2023-03-28T22:28:33.772Z,50.83
2023-03-28T22:31:07.232Z,50.37
2023-03-28T22:33:41.989Z,50.50
2023-03-28T22:36:15.628Z,50.64
2023-03-28T22:38:48.701Z,50.90
2023-03-28T22:41:21.769Z,51.02
2023-03-28T22:43:54.701Z,52.00
2023-03-28T22:46:27.750Z,52.52
2023-03-28T22:49:04.618Z,51.54
2023-03-28T22:51:43.937Z,52.09
2023-03-28T22:54:21.049Z,52.78
2023-03-28T22:56:54.057Z,52.34
2023-03-28T22:59:28.087Z,52.71
2023-03-28T23:02:01.410Z,52.85
2023-03-28T23:04:36.189Z,53.49
2023-03-28T23:07:09.141Z,52.93
2023-03-28T23:09:43.148Z,53.53
2023-03-28T23:12:16.684Z,52.97
2023-03-28T23:14:50.341Z,53.75
2023-03-28T23:17:25.077Z,53.71
2023-03-28T23:20:00.527Z,53.90
2023-03-28T23:22:33.563Z,53.72
2023-03-28T23:25:06.957Z,53.22
2023-03-28T23:27:40.574Z,53.42
2023-03-28T23:30:14.666Z,54.54
2023-03-28T23:32:47.977Z,53.94
2023-03-28T23:35:22.518Z,53.70
2023-03-28T23:37:55.454Z,55.98
2023-03-28T23:40:29.150Z,54.09
2023-03-28T23:43:02.459Z,53.71
2023-03-28T23:45:35.687Z,53.74
2023-03-28T23:48:09.321Z,52.85
2023-03-28T23:50:43.823Z,53.60
2023-03-28T23:53:16.750Z,53.58
2023-03-28T23:55:49.649Z,55.06
2023-03-28T23:58:22.732Z,53.69
